createdAt,value
2023-01-20T00:00:06.629Z,-0.3
2023-01-20T00:01:06.307Z,-0.2
2023-01-20T00:02:05.743Z,-0.2
2023-01-20T00:03:06.241Z,-0.2
2023-01-20T00:04:06.693Z,-0.3
2023-01-20T00:05:06.059Z,-0.3
2023-01-20T00:06:06.006Z,-0.3
2023-01-20T00:07:06.619Z,-0.3
2023-01-20T00:08:05.872Z,-0.3
2023-01-20T00:09:06.463Z,-1
2023-01-20T00:10:05.949Z,-0.3
2023-01-20T00:11:06.286Z,-0.3
2023-01-20T00:12:05.722Z,-0.3
2023-01-20T00:13:06.245Z,-0.3
2023-01-20T00:14:06.731Z,-0.3
2023-01-20T00:15:05.983Z,-0.3
2023-01-20T00:16:06.158Z,-0.3
2023-01-20T00:17:06.548Z,-0.3
2023-01-20T00:18:06.175Z,-0.3
2023-01-20T00:19:06.483Z,-0.3
2023-01-20T00:20:06.069Z,-0.4
2023-01-20T00:21:06.663Z,-0.4
2023-01-20T00:22:06.120Z,-0.3
2023-01-20T00:23:06.288Z,-0.3
2023-01-20T00:24:05.725Z,-0.3
2023-01-20T00:25:06.120Z,-0.4
2023-01-20T00:26:06.322Z,-0.3
2023-01-20T00:27:05.761Z,-0.3
2023-01-20T00:28:06.267Z,-0.3
2023-01-20T00:29:06.763Z,-0.3
2023-01-20T00:30:06.104Z,-0.3
2023-01-20T00:31:06.654Z,-0.3
2023-01-20T00:32:06.511Z,-0.3
2023-01-20T00:33:05.741Z,-1
2023-01-20T00:34:05.172Z,-1
2023-01-20T00:35:06.363Z,-0.4
2023-01-20T00:36:05.988Z,-0.4
2023-01-20T00:37:06.494Z,-0.4
2023-01-20T00:38:05.827Z,-0.4
2023-01-20T00:39:06.169Z,-0.4
2023-01-20T00:40:06.421Z,-0.4
2023-01-20T00:41:06.160Z,-1
2023-01-20T00:42:06.568Z,-0.4
2023-01-20T00:43:06.672Z,-0.4
2023-01-20T00:44:05.952Z,-1
2023-01-20T00:45:06.430Z,-0.4
2023-01-20T00:46:05.956Z,-0.4
2023-01-20T00:47:05.335Z,-0.4
2023-01-20T00:48:06.195Z,-0.4
2023-01-20T00:49:06.685Z,-0.4
2023-01-20T00:50:05.854Z,-0.4
2023-01-20T00:51:06.388Z,-0.4
2023-01-20T00:52:06.005Z,-0.4
2023-01-20T00:53:06.404Z,-0.4
2023-01-20T00:54:06.752Z,-0.4
2023-01-20T00:55:05.970Z,-0.5
2023-01-20T00:56:06.587Z,-0.4
2023-01-20T00:57:06.054Z,-0.5
2023-01-20T00:58:06.295Z,-1
2023-01-20T00:59:06.036Z,-0.5
2023-01-20T01:00:06.458Z,-0.5
2023-01-20T01:01:06.914Z,-0.5
2023-01-20T01:02:06.465Z,-0.5
2023-01-20T01:03:06.525Z,-0.5
2023-01-20T01:04:06.177Z,-0.5
2023-01-20T01:05:05.749Z,-0.5
2023-01-20T01:06:06.027Z,-0.5
2023-01-20T01:07:05.517Z,-0.5
2023-01-20T01:08:05.881Z,-0.5
2023-01-20T01:09:06.081Z,-0.5
2023-01-20T01:10:06.556Z,-0.5
2023-01-20T01:11:06.169Z,-0.5
2023-01-20T01:12:06.422Z,-0.5
2023-01-20T01:13:06.000Z,-0.5
2023-01-20T01:14:06.488Z,-0.5
2023-01-20T01:15:06.077Z,-0.6
2023-01-20T01:16:06.113Z,-1
2023-01-20T01:17:06.548Z,-1
2023-01-20T01:18:06.339Z,-0.5
2023-01-20T01:19:05.225Z,-0.6
2023-01-20T01:20:05.791Z,-0.6
2023-01-20T01:21:06.227Z,-0.5
2023-01-20T01:22:06.632Z,-0.5
2023-01-20T01:23:06.045Z,-0.5
2023-01-20T01:24:06.287Z,-0.5
2023-01-20T01:25:06.070Z,-0.5
2023-01-20T01:26:06.726Z,-0.5
2023-01-20T01:27:05.910Z,-0.5
2023-01-20T01:28:06.399Z,-0.6
2023-01-20T01:29:05.883Z,-0.6
2023-01-20T01:30:06.584Z,-1
2023-01-20T01:31:06.057Z,-0.6
2023-01-20T01:32:06.544Z,-0.6
2023-01-20T01:33:06.029Z,-0.6
2023-01-20T01:34:06.440Z,-0.6
2023-01-20T01:35:05.820Z,-0.6
2023-01-20T01:36:06.300Z,-0.6
2023-01-20T01:37:05.701Z,-0.6
2023-01-20T01:38:06.001Z,-0.6
2023-01-20T01:39:06.487Z,-0.6
2023-01-20T01:40:05.882Z,-0.6
2023-01-20T01:41:06.331Z,-1
2023-01-20T01:42:05.735Z,-0.6
2023-01-20T01:43:05.937Z,-0.6
2023-01-20T01:44:05.955Z,-0.6
2023-01-20T01:45:05.783Z,-0.6
2023-01-20T01:46:06.396Z,-0.6
2023-01-20T01:47:06.240Z,-0.6
2023-01-20T01:48:05.801Z,-0.6
2023-01-20T01:49:06.410Z,-0.6
2023-01-20T01:50:05.869Z,-0.6
2023-01-20T01:51:05.861Z,-0.6
2023-01-20T01:52:06.040Z,-1
2023-01-20T01:53:06.470Z,-0.7
2023-01-20T01:54:05.613Z,-0.7
2023-01-20T01:55:06.140Z,-0.7
2023-01-20T01:56:06.602Z,-0.7
2023-01-20T01:57:05.382Z,-0.7
2023-01-20T01:58:05.974Z,-0.7
2023-01-20T01:59:06.346Z,-0.7
2023-01-20T02:00:06.687Z,-0.7
2023-01-20T02:01:05.109Z,-0.7
2023-01-20T02:02:06.287Z,-0.7
2023-01-20T02:03:06.425Z,-0.7
2023-01-20T02:04:06.384Z,-1
2023-01-20T02:05:05.779Z,-0.7
2023-01-20T02:06:05.612Z,-0.7
2023-01-20T02:07:06.013Z,-0.7
2023-01-20T02:08:06.604Z,-0.7
2023-01-20T02:09:06.091Z,-0.7
2023-01-20T02:10:05.939Z,-0.7
2023-01-20T02:11:06.507Z,-0.7
2023-01-20T02:12:05.833Z,-0.8
2023-01-20T02:13:06.118Z,-0.8
2023-01-20T02:14:06.521Z,-0.8
2023-01-20T02:15:05.701Z,-0.8
2023-01-20T02:16:06.645Z,-1
2023-01-20T02:17:06.332Z,-1
2023-01-20T02:18:05.942Z,-0.8
2023-01-20T02:19:06.348Z,-0.8
2023-01-20T02:20:05.756Z,-0.8
2023-01-20T02:21:06.048Z,-0.8
2023-01-20T02:22:05.099Z,-1
2023-01-20T02:23:06.397Z,-0.8
2023-01-20T02:24:06.552Z,-0.8
2023-01-20T02:25:06.535Z,-0.8
2023-01-20T02:26:06.271Z,-0.8
2023-01-20T02:27:05.772Z,-0.8
2023-01-20T02:28:06.136Z,-0.8
2023-01-20T02:29:05.831Z,-0.8
2023-01-20T02:30:06.378Z,-1
2023-01-20T02:31:05.760Z,-1
2023-01-20T02:32:05.715Z,-0.8
2023-01-20T02:33:05.781Z,-1
2023-01-20T02:34:06.174Z,-1
2023-01-20T02:35:06.638Z,-0.8
2023-01-20T02:36:05.856Z,-0.8
2023-01-20T02:37:06.214Z,-0.8
2023-01-20T02:38:05.761Z,-0.8
2023-01-20T02:39:06.122Z,-0.8
2023-01-20T02:40:06.504Z,-0.8
2023-01-20T02:41:05.849Z,-0.8
2023-01-20T02:42:06.243Z,-0.8
2023-01-20T02:43:06.582Z,-0.8
2023-01-20T02:44:05.889Z,-0.8
2023-01-20T02:45:06.145Z,-0.8
2023-01-20T02:46:06.836Z,-0.8
2023-01-20T02:47:07.018Z,-0.8
2023-01-20T02:48:06.572Z,-0.8
2023-01-20T02:49:06.965Z,-0.8
2023-01-20T02:50:05.749Z,-0.8
2023-01-20T02:51:06.102Z,-0.8
2023-01-20T02:52:06.595Z,-0.8
2023-01-20T02:53:06.401Z,-0.8
2023-01-20T02:54:06.309Z,-0.8
2023-01-20T02:55:06.755Z,-0.8
2023-01-20T02:56:06.238Z,-0.8
2023-01-20T02:57:05.836Z,-0.8
2023-01-20T02:58:06.171Z,-0.8
2023-01-20T02:59:05.749Z,-0.8
2023-01-20T03:00:06.204Z,-0.8
2023-01-20T03:01:06.211Z,-1
2023-01-20T03:02:06.638Z,-0.8
2023-01-20T03:03:05.844Z,-1
2023-01-20T03:04:06.564Z,-0.8
2023-01-20T03:05:05.819Z,-0.8
2023-01-20T03:06:06.802Z,-0.8
2023-01-20T03:07:05.966Z,-0.8
2023-01-20T03:08:06.459Z,-0.8
2023-01-20T03:09:06.454Z,-0.8
2023-01-20T03:10:06.213Z,-0.7
2023-01-20T03:11:06.723Z,-0.8
2023-01-20T03:12:06.042Z,-0.8
2023-01-20T03:13:06.554Z,-0.8
2023-01-20T03:14:05.997Z,-0.7
2023-01-20T03:15:06.232Z,-0.8
2023-01-20T03:16:06.051Z,-0.7
2023-01-20T03:17:06.372Z,-0.8
2023-01-20T03:18:06.006Z,-0.8
2023-01-20T03:19:06.175Z,-0.7
2023-01-20T03:20:06.540Z,-0.7
2023-01-20T03:21:05.791Z,-0.7
2023-01-20T03:22:06.329Z,-0.7
2023-01-20T03:23:05.776Z,-0.7
2023-01-20T03:24:06.722Z,-0.7
2023-01-20T03:25:06.062Z,-0.8
2023-01-20T03:26:06.035Z,-0.7
2023-01-20T03:27:06.389Z,-0.7
2023-01-20T03:28:06.103Z,-0.8
2023-01-20T03:29:04.984Z,-0.8
2023-01-20T03:30:06.372Z,-0.8
2023-01-20T03:31:06.856Z,-0.8
2023-01-20T03:32:05.572Z,-1
2023-01-20T03:33:05.824Z,-0.7
2023-01-20T03:34:06.200Z,-0.8
2023-01-20T03:35:05.901Z,-0.8
2023-01-20T03:36:06.111Z,-0.8
2023-01-20T03:37:05.633Z,-0.7
2023-01-20T03:38:06.153Z,-0.7
2023-01-20T03:39:06.741Z,-0.8
2023-01-20T03:40:06.010Z,-0.8
2023-01-20T03:41:06.140Z,-0.8
2023-01-20T03:42:06.509Z,-0.8
2023-01-20T03:43:05.903Z,-0.8
2023-01-20T03:44:06.200Z,-0.8
2023-01-20T03:45:05.802Z,-0.8
2023-01-20T03:46:06.121Z,-0.7
2023-01-20T03:47:06.179Z,-0.8
2023-01-20T03:48:05.784Z,-0.7
2023-01-20T03:49:06.541Z,-0.7
2023-01-20T03:50:05.992Z,-0.7
2023-01-20T03:51:05.392Z,-1
2023-01-20T03:52:05.616Z,-0.7
2023-01-20T03:53:06.556Z,-0.7
2023-01-20T03:54:05.833Z,-0.7
2023-01-20T03:55:06.151Z,-0.7
2023-01-20T03:56:06.587Z,-0.7
2023-01-20T03:57:06.085Z,-0.7
2023-01-20T03:58:06.437Z,-0.7
2023-01-20T03:59:05.727Z,-0.7
2023-01-20T04:00:06.519Z,-0.7
2023-01-20T04:01:21.105Z,-0.7
2023-01-20T04:02:06.407Z,-0.7
2023-01-20T04:03:05.774Z,-1
2023-01-20T04:04:06.314Z,-1
2023-01-20T04:05:06.272Z,-0.7
2023-01-20T04:06:06.135Z,-0.7
2023-01-20T04:07:06.570Z,-0.7
2023-01-20T04:08:05.913Z,-0.7
2023-01-20T04:09:06.470Z,-0.7
2023-01-20T04:10:05.729Z,-0.7
2023-01-20T04:11:06.092Z,-0.7
2023-01-20T04:12:05.795Z,-0.7
2023-01-20T04:13:06.315Z,-0.7
2023-01-20T04:14:05.719Z,-0.7
2023-01-20T04:15:05.767Z,-0.7
2023-01-20T04:16:06.627Z,-0.7
2023-01-20T04:17:06.412Z,-0.7
2023-01-20T04:18:05.841Z,-0.7
2023-01-20T04:19:06.471Z,-0.7
2023-01-20T04:20:06.123Z,-0.7
2023-01-20T04:21:06.014Z,-0.7
2023-01-20T04:22:06.283Z,-0.7
2023-01-20T04:23:06.267Z,-0.7
2023-01-20T04:24:06.530Z,-0.7
2023-01-20T04:25:05.948Z,-1
2023-01-20T04:26:06.354Z,-1
2023-01-20T04:27:06.580Z,-0.7
2023-01-20T04:28:06.239Z,-0.7
2023-01-20T04:29:06.588Z,-0.7
2023-01-20T04:30:05.981Z,-0.7
2023-01-20T04:31:06.532Z,-0.7
2023-01-20T04:32:06.962Z,-0.6
2023-01-20T04:33:05.826Z,-0.7
2023-01-20T04:34:05.626Z,-0.6
2023-01-20T04:35:05.720Z,-0.7
2023-01-20T04:36:06.216Z,-0.7
2023-01-20T04:37:06.448Z,-0.7
2023-01-20T04:38:05.695Z,-0.7
2023-01-20T04:39:05.840Z,-0.6
2023-01-20T04:40:06.238Z,-0.7
2023-01-20T04:41:07.818Z,-0.6
2023-01-20T04:42:06.591Z,-0.6
2023-01-20T04:43:06.367Z,-0.6
2023-01-20T04:44:05.801Z,-0.6
2023-01-20T04:45:05.958Z,-0.7
2023-01-20T04:46:05.729Z,-0.6
2023-01-20T04:47:06.112Z,-0.6
2023-01-20T04:48:06.544Z,-0.6
2023-01-20T04:49:06.426Z,-1
2023-01-20T04:50:05.818Z,-0.7
2023-01-20T04:51:06.088Z,-0.6
2023-01-20T04:52:06.145Z,-0.7
2023-01-20T04:53:06.545Z,-1
2023-01-20T04:54:06.171Z,-0.6
2023-01-20T04:55:05.749Z,-0.6
2023-01-20T04:56:06.048Z,-0.6
2023-01-20T04:57:06.496Z,-0.6
2023-01-20T04:58:05.707Z,-0.6
2023-01-20T04:59:06.121Z,-0.6
2023-01-20T05:00:06.748Z,-1
2023-01-20T05:01:06.320Z,-1
2023-01-20T05:02:06.962Z,-0.6
2023-01-20T05:03:06.369Z,-0.6
2023-01-20T05:04:06.084Z,-1
2023-01-20T05:05:05.784Z,-0.6
2023-01-20T05:06:06.504Z,-0.6
2023-01-20T05:07:05.899Z,-1
2023-01-20T05:08:06.386Z,-0.6
2023-01-20T05:09:06.134Z,-0.6
2023-01-20T05:10:05.757Z,-0.6
2023-01-20T05:11:06.704Z,-1
2023-01-20T05:12:05.913Z,-1
2023-01-20T05:13:06.075Z,-1
2023-01-20T05:14:06.224Z,-0.6
2023-01-20T05:15:06.675Z,-0.6
2023-01-20T05:16:07.455Z,-0.6
2023-01-20T05:17:06.141Z,-0.6
2023-01-20T05:18:05.969Z,-0.6
2023-01-20T05:19:05.842Z,-0.6
2023-01-20T05:20:06.228Z,-0.6
2023-01-20T05:21:05.608Z,-0.6
2023-01-20T05:22:05.721Z,-0.6
2023-01-20T05:23:06.076Z,-0.6
2023-01-20T05:24:06.485Z,-1
2023-01-20T05:25:05.918Z,-0.6
2023-01-20T05:26:05.906Z,-0.6
2023-01-20T05:27:06.224Z,-0.6
2023-01-20T05:28:05.630Z,-0.6
2023-01-20T05:29:06.227Z,-0.6
2023-01-20T05:30:06.502Z,-0.6
2023-01-20T05:31:06.419Z,-1
2023-01-20T05:32:06.398Z,-1
2023-01-20T05:33:05.831Z,-0.6
2023-01-20T05:34:05.904Z,-0.6
2023-01-20T05:35:06.401Z,-0.5
2023-01-20T05:36:05.724Z,-0.5
2023-01-20T05:37:05.814Z,-1
2023-01-20T05:38:05.987Z,-1
2023-01-20T05:39:06.638Z,-0.6
2023-01-20T05:40:05.910Z,-0.6
2023-01-20T05:41:06.100Z,-0.6
2023-01-20T05:42:06.658Z,-0.6
2023-01-20T05:43:05.944Z,-0.6
2023-01-20T05:44:05.729Z,-1
2023-01-20T05:45:06.143Z,-0.6
2023-01-20T05:46:06.239Z,-0.6
2023-01-20T05:47:05.928Z,-0.6
2023-01-20T05:48:06.474Z,-0.6
2023-01-20T05:49:05.861Z,-0.6
2023-01-20T05:50:06.351Z,-0.6
2023-01-20T05:51:06.247Z,-0.6
2023-01-20T05:52:06.453Z,-0.6
2023-01-20T05:53:06.019Z,-0.6
2023-01-20T05:54:05.762Z,-1
2023-01-20T05:55:06.550Z,-0.6
2023-01-20T05:56:06.092Z,-0.6
2023-01-20T05:57:06.334Z,-0.6
2023-01-20T05:58:06.223Z,-0.6
2023-01-20T05:59:06.613Z,-0.6
2023-01-20T06:00:08.660Z,-0.6
2023-01-20T06:01:06.228Z,-0.6
2023-01-20T06:02:06.463Z,-0.5
2023-01-20T06:03:06.268Z,-0.5
2023-01-20T06:04:05.929Z,-0.5
2023-01-20T06:05:06.209Z,-1
2023-01-20T06:06:06.590Z,-1
2023-01-20T06:07:05.825Z,-0.5
2023-01-20T06:08:06.127Z,-0.5
2023-01-20T06:09:06.427Z,-0.6
2023-01-20T06:10:06.615Z,-0.6
2023-01-20T06:11:06.036Z,-0.6
2023-01-20T06:12:06.376Z,-0.5
2023-01-20T06:13:05.701Z,-0.6
2023-01-20T06:14:06.053Z,-0.6
2023-01-20T06:15:06.439Z,-0.6
2023-01-20T06:16:09.235Z,-0.5
2023-01-20T06:17:06.238Z,-0.6
2023-01-20T06:18:06.656Z,-0.6
2023-01-20T06:19:05.962Z,-0.5
2023-01-20T06:20:06.420Z,-0.6
2023-01-20T06:21:06.027Z,-0.6
2023-01-20T06:22:06.320Z,-1
2023-01-20T06:23:05.971Z,-0.6
2023-01-20T06:24:06.210Z,-0.5
2023-01-20T06:25:06.433Z,-1
2023-01-20T06:26:05.801Z,-0.6
2023-01-20T06:27:06.265Z,-0.6
2023-01-20T06:28:05.869Z,-0.5
2023-01-20T06:29:06.296Z,-0.6
2023-01-20T06:30:05.777Z,-0.6
2023-01-20T06:31:07.049Z,-0.6
2023-01-20T06:32:06.032Z,-0.6
2023-01-20T06:33:06.509Z,-0.6
2023-01-20T06:34:05.691Z,-1
2023-01-20T06:35:06.077Z,-0.6
2023-01-20T06:36:05.904Z,-0.6
2023-01-20T06:37:06.427Z,-0.6
2023-01-20T06:38:05.858Z,-1
2023-01-20T06:39:06.303Z,-0.6
2023-01-20T06:40:04.721Z,-0.6
2023-01-20T06:41:06.047Z,-0.6
2023-01-20T06:42:06.439Z,-0.7
2023-01-20T06:43:05.918Z,-0.7
2023-01-20T06:44:05.938Z,-0.6
2023-01-20T06:45:06.285Z,-0.7
2023-01-20T06:46:06.356Z,-0.7
2023-01-20T06:47:05.639Z,-0.7
2023-01-20T06:48:06.228Z,-0.6
2023-01-20T06:49:05.615Z,-0.7
2023-01-20T06:50:06.207Z,-0.7
2023-01-20T06:51:06.663Z,-0.7
2023-01-20T06:52:05.982Z,-0.7
2023-01-20T06:53:06.658Z,-1
2023-01-20T06:54:06.217Z,-0.7
2023-01-20T06:55:06.522Z,-0.7
2023-01-20T06:56:05.804Z,-0.7
2023-01-20T06:57:05.821Z,-0.7
2023-01-20T06:58:06.239Z,-1
2023-01-20T06:59:06.598Z,-0.7
2023-01-20T07:00:06.600Z,-1
2023-01-20T07:01:06.202Z,-0.7
2023-01-20T07:02:07.112Z,-0.7
2023-01-20T07:03:06.212Z,-0.7
2023-01-20T07:04:06.421Z,-0.7
2023-01-20T07:05:05.955Z,-0.7
2023-01-20T07:06:06.533Z,-0.7
2023-01-20T07:07:06.027Z,-0.7
2023-01-20T07:08:04.891Z,-0.8
2023-01-20T07:09:05.825Z,-0.8
2023-01-20T07:10:06.092Z,-0.8
2023-01-20T07:11:06.505Z,-0.8
2023-01-20T07:12:05.760Z,-0.8
2023-01-20T07:13:06.300Z,-0.8
2023-01-20T07:14:05.799Z,-0.8
2023-01-20T07:15:05.806Z,-0.8
2023-01-20T07:16:06.994Z,-0.8
2023-01-20T07:17:06.378Z,-0.8
2023-01-20T07:18:06.336Z,-0.8
2023-01-20T07:19:06.620Z,-0.8
2023-01-20T07:20:06.324Z,-1
2023-01-20T07:21:05.694Z,-0.8
2023-01-20T07:22:06.076Z,-0.8
2023-01-20T07:23:06.635Z,-0.8
2023-01-20T07:24:06.193Z,-0.8
2023-01-20T07:25:05.863Z,-0.8
2023-01-20T07:26:06.320Z,-0.8
2023-01-20T07:27:05.585Z,-0.8
2023-01-20T07:28:05.830Z,-0.8
2023-01-20T07:29:06.442Z,-0.8
2023-01-20T07:30:05.911Z,-0.7
2023-01-20T07:31:06.301Z,-0.8
2023-01-20T07:32:06.464Z,-0.8
2023-01-20T07:33:05.762Z,-0.7
2023-01-20T07:34:06.493Z,-0.7
2023-01-20T07:35:06.244Z,-0.8
2023-01-20T07:36:06.425Z,-0.8
2023-01-20T07:37:05.926Z,-0.7
2023-01-20T07:38:06.352Z,-0.7
2023-01-20T07:39:05.830Z,-0.7
2023-01-20T07:40:06.110Z,-0.7
2023-01-20T07:41:09.047Z,-0.7
2023-01-20T07:42:05.737Z,-0.7
2023-01-20T07:43:05.940Z,-0.7
2023-01-20T07:44:06.418Z,-0.7
2023-01-20T07:45:05.975Z,-0.6
2023-01-20T07:46:06.128Z,-0.6
2023-01-20T07:47:06.085Z,-0.7
2023-01-20T07:48:06.474Z,-0.6
2023-01-20T07:49:06.074Z,-0.6
2023-01-20T07:50:06.554Z,-0.6
2023-01-20T07:51:05.938Z,-0.6
2023-01-20T07:52:06.034Z,-0.6
2023-01-20T07:53:06.524Z,-1
2023-01-20T07:54:06.253Z,-0.6
2023-01-20T07:55:05.961Z,-0.6
2023-01-20T07:56:06.280Z,-1
2023-01-20T07:57:06.629Z,-1
2023-01-20T07:58:05.850Z,-0.6
2023-01-20T07:59:06.311Z,-0.6
2023-01-20T08:00:05.602Z,-0.6
2023-01-20T08:01:06.073Z,-0.6
2023-01-20T08:02:06.392Z,-0.6
2023-01-20T08:03:06.368Z,-0.6
2023-01-20T08:04:06.486Z,-0.6
2023-01-20T08:05:06.340Z,-0.6
2023-01-20T08:06:05.916Z,-0.6
2023-01-20T08:07:06.364Z,-0.6
2023-01-20T08:08:05.685Z,-1
2023-01-20T08:09:06.483Z,-1
2023-01-20T08:10:06.101Z,-0.6
2023-01-20T08:11:06.669Z,-0.6
2023-01-20T08:12:06.055Z,-0.6
2023-01-20T08:13:06.654Z,-0.6
2023-01-20T08:14:05.928Z,-0.6
2023-01-20T08:15:06.257Z,-0.5
2023-01-20T08:16:06.500Z,-0.5
2023-01-20T08:17:06.578Z,-0.5
2023-01-20T08:18:05.808Z,-0.5
2023-01-20T08:19:06.248Z,-0.5
2023-01-20T08:20:05.964Z,-0.6
2023-01-20T08:21:06.438Z,-0.5
2023-01-20T08:22:05.663Z,-0.5
2023-01-20T08:23:06.203Z,-0.5
2023-01-20T08:24:06.652Z,-0.5
2023-01-20T08:25:05.675Z,-0.4
2023-01-20T08:26:06.142Z,-0.4
2023-01-20T08:27:06.095Z,-0.4
2023-01-20T08:28:09.552Z,-0.4
2023-01-20T08:29:05.849Z,-0.4
2023-01-20T08:30:05.949Z,-1
2023-01-20T08:31:06.974Z,-1
2023-01-20T08:32:06.041Z,-0.4
2023-01-20T08:33:06.015Z,-0.4
2023-01-20T08:34:06.009Z,-0.3
2023-01-20T08:35:06.298Z,-0.3
2023-01-20T08:36:06.050Z,-0.3
2023-01-20T08:37:05.867Z,-0.3
2023-01-20T08:38:06.273Z,-0.3
2023-01-20T08:39:05.759Z,-0.3
2023-01-20T08:40:06.162Z,-0.2
2023-01-20T08:41:06.359Z,-0.2
2023-01-20T08:42:06.400Z,-0.2
2023-01-20T08:43:06.200Z,-0.2
2023-01-20T08:44:05.986Z,-1
2023-01-20T08:45:06.100Z,-0.2
2023-01-20T08:46:05.956Z,-0.2
2023-01-20T08:47:05.731Z,-0.2
2023-01-20T08:48:05.708Z,-0.1
2023-01-20T08:49:06.288Z,-0.1
2023-01-20T08:50:06.211Z,-0.1
2023-01-20T08:51:06.324Z,-0.1
2023-01-20T08:52:06.659Z,-0.1
2023-01-20T08:53:06.065Z,-0.1
2023-01-20T08:54:06.393Z,-0.1
2023-01-20T08:55:06.086Z,0
2023-01-20T08:56:06.255Z,-1
2023-01-20T08:57:05.844Z,-0.1
2023-01-20T08:58:06.450Z,-0.1
2023-01-20T08:59:05.784Z,-0.1
2023-01-20T09:00:05.418Z,0
2023-01-20T09:01:06.387Z,0
2023-01-20T09:02:06.723Z,0
2023-01-20T09:03:06.522Z,0
2023-01-20T09:04:11.021Z,0
2023-01-20T09:05:06.235Z,0
2023-01-20T09:06:05.425Z,0
2023-01-20T09:07:05.801Z,0
2023-01-20T09:08:06.508Z,0
2023-01-20T09:09:08.639Z,0.1
2023-01-20T09:10:06.074Z,0.1
2023-01-20T09:11:06.656Z,0.1
2023-01-20T09:12:06.469Z,0.1
2023-01-20T09:13:06.649Z,0.1
2023-01-20T09:14:05.991Z,0.2
2023-01-20T09:15:09.145Z,0.2
2023-01-20T09:16:06.467Z,0.2
2023-01-20T09:17:05.844Z,0.2
2023-01-20T09:18:06.102Z,0.2
2023-01-20T09:19:06.466Z,0.2
2023-01-20T09:20:06.059Z,0.3
2023-01-20T09:21:06.708Z,0.3
2023-01-20T09:22:05.928Z,0.3
2023-01-20T09:23:06.349Z,0.3
2023-01-20T09:24:05.846Z,0.3
2023-01-20T09:25:06.252Z,0.3
2023-01-20T09:26:05.723Z,-1
2023-01-20T09:27:06.388Z,-1
2023-01-20T09:28:08.028Z,-1
2023-01-20T09:29:06.260Z,0.3
2023-01-20T09:30:05.717Z,0.3
2023-01-20T09:31:06.853Z,-1
2023-01-20T09:32:06.046Z,0.3
2023-01-20T09:33:06.371Z,0.4
2023-01-20T09:34:05.533Z,0.4
2023-01-20T09:35:06.121Z,0.4
2023-01-20T09:36:06.624Z,0.4
2023-01-20T09:37:06.300Z,0.4
2023-01-20T09:38:06.049Z,0.3
2023-01-20T09:39:06.496Z,0.3
2023-01-20T09:40:05.766Z,0.4
2023-01-20T09:41:06.390Z,0.4
2023-01-20T09:42:05.875Z,0.3
2023-01-20T09:43:05.874Z,0.3
2023-01-20T09:44:06.416Z,0.3
2023-01-20T09:45:05.821Z,0.3
2023-01-20T09:46:06.664Z,-1
2023-01-20T09:47:05.977Z,0.3
2023-01-20T09:48:06.262Z,0.4
2023-01-20T09:49:05.946Z,0.3
2023-01-20T09:50:06.189Z,0.3
2023-01-20T09:51:05.731Z,-1
2023-01-20T09:52:06.091Z,0.4
2023-01-20T09:53:06.376Z,0.4
2023-01-20T09:54:05.954Z,0.3
2023-01-20T09:55:06.202Z,0.3
2023-01-20T09:56:08.350Z,0.3
2023-01-20T09:57:06.449Z,0.3
2023-01-20T09:58:05.944Z,0.3
2023-01-20T09:59:06.561Z,0.4
2023-01-20T10:00:06.031Z,0.4
2023-01-20T10:01:06.080Z,0.4
2023-01-20T10:02:05.819Z,0.4
2023-01-20T10:03:06.482Z,0.4
2023-01-20T10:04:09.018Z,0.4
2023-01-20T10:05:06.453Z,0.4
2023-01-20T10:06:05.514Z,0.4
2023-01-20T10:07:06.210Z,-1
2023-01-20T10:08:05.886Z,-1
2023-01-20T10:09:10.202Z,0.4
2023-01-20T10:10:05.672Z,0.4
2023-01-20T10:11:06.649Z,0.4
2023-01-20T10:12:05.950Z,0.5
2023-01-20T10:13:05.813Z,0.5
2023-01-20T10:14:05.663Z,0.5
2023-01-20T10:15:06.226Z,0.5
2023-01-20T10:16:06.699Z,0.5
2023-01-20T10:17:05.839Z,0.5
2023-01-20T10:18:06.359Z,0
2023-01-20T10:19:06.455Z,0.6
2023-01-20T10:20:06.177Z,0.6
2023-01-20T10:21:06.579Z,0.6
2023-01-20T10:22:06.516Z,0.6
2023-01-20T10:23:05.891Z,0
2023-01-20T10:24:06.036Z,0.6
2023-01-20T10:25:06.315Z,0.6
2023-01-20T10:26:06.496Z,0.6
2023-01-20T10:27:06.021Z,0.6
2023-01-20T10:28:06.073Z,0.6
2023-01-20T10:29:06.578Z,0
2023-01-20T10:30:06.032Z,0.6
2023-01-20T10:31:06.826Z,0.6
2023-01-20T10:32:06.505Z,0.6
2023-01-20T10:33:06.034Z,0.6
2023-01-20T10:34:06.395Z,0.7
2023-01-20T10:35:06.119Z,0.7
2023-01-20T10:36:06.185Z,0.7
2023-01-20T10:37:05.929Z,0.7
2023-01-20T10:38:06.004Z,0.8
2023-01-20T10:39:06.498Z,0.8
2023-01-20T10:40:05.987Z,0.8
2023-01-20T10:41:06.354Z,0
2023-01-20T10:42:05.759Z,0.8
2023-01-20T10:43:06.357Z,0.8
2023-01-20T10:44:05.743Z,0.9
2023-01-20T10:45:06.324Z,0.8
2023-01-20T10:46:05.795Z,0.8
2023-01-20T10:47:05.943Z,0.8
2023-01-20T10:48:06.589Z,0.9
2023-01-20T10:49:06.291Z,0.9
2023-01-20T10:50:06.668Z,0.9
2023-01-20T10:51:06.027Z,0.9
2023-01-20T10:52:06.437Z,0.9
2023-01-20T10:53:05.863Z,0.9
2023-01-20T10:54:06.088Z,1
2023-01-20T10:55:05.436Z,0.9
2023-01-20T10:56:06.706Z,1
2023-01-20T10:57:06.031Z,1
2023-01-20T10:58:06.341Z,1
2023-01-20T10:59:06.203Z,0.9
2023-01-20T11:00:06.505Z,0.9
2023-01-20T11:01:06.598Z,0.9
2023-01-20T11:02:16.334Z,1
2023-01-20T11:03:06.260Z,1
2023-01-20T11:04:06.375Z,1
2023-01-20T11:05:06.635Z,0
2023-01-20T11:06:06.170Z,0.9
2023-01-20T11:07:06.436Z,0.9
2023-01-20T11:08:05.915Z,0.9
2023-01-20T11:09:06.570Z,0.9
2023-01-20T11:10:05.730Z,0.9
2023-01-20T11:11:06.016Z,0
2023-01-20T11:12:05.777Z,0.9
2023-01-20T11:13:06.157Z,0.8
2023-01-20T11:14:05.871Z,0.9
2023-01-20T11:15:06.355Z,0.8
2023-01-20T11:16:06.134Z,0.8
2023-01-20T11:17:06.259Z,0.8
2023-01-20T11:18:06.505Z,0.9
2023-01-20T11:19:06.627Z,0.9
2023-01-20T11:20:05.860Z,0.9
2023-01-20T11:21:06.441Z,0.8
2023-01-20T11:22:05.880Z,0.9
2023-01-20T11:23:06.109Z,0.9
2023-01-20T11:24:06.332Z,0.9
2023-01-20T11:25:06.128Z,0.9
2023-01-20T11:26:06.301Z,0.9
2023-01-20T11:27:06.539Z,0.9
2023-01-20T11:28:05.928Z,0.9
2023-01-20T11:29:06.467Z,0.9
2023-01-20T11:30:05.795Z,0.9
2023-01-20T11:31:06.622Z,0.8
2023-01-20T11:32:05.645Z,0.9
2023-01-20T11:33:06.346Z,0.9
2023-01-20T11:34:06.646Z,0.9
2023-01-20T11:35:05.941Z,0.9
2023-01-20T11:36:05.807Z,0.9
2023-01-20T11:37:06.128Z,1
2023-01-20T11:38:06.603Z,1
2023-01-20T11:39:06.098Z,1
2023-01-20T11:40:05.961Z,0.9
2023-01-20T11:41:06.529Z,1
2023-01-20T11:42:05.892Z,0.9
2023-01-20T11:43:06.563Z,0.9
2023-01-20T11:44:06.035Z,1
2023-01-20T11:45:25.933Z,0.9
2023-01-20T11:46:06.131Z,0.9
2023-01-20T11:47:06.586Z,0.9
2023-01-20T11:48:06.089Z,1
2023-01-20T11:49:06.373Z,1
2023-01-20T11:50:05.102Z,1
2023-01-20T11:51:06.666Z,0
2023-01-20T11:52:06.392Z,1
2023-01-20T11:53:06.663Z,0.9
2023-01-20T11:54:06.544Z,0.9
2023-01-20T11:55:05.948Z,0.9
2023-01-20T11:56:06.219Z,0.8
2023-01-20T11:57:05.958Z,0.8
2023-01-20T11:58:06.240Z,0.8
2023-01-20T11:59:05.785Z,0.8
2023-01-20T12:00:05.723Z,0.8
2023-01-20T12:01:06.382Z,0
2023-01-20T12:02:06.122Z,0.8
2023-01-20T12:03:05.782Z,0.8
2023-01-20T12:04:06.404Z,0.8
2023-01-20T12:05:05.746Z,0.8
2023-01-20T12:06:06.310Z,0.7
2023-01-20T12:07:05.592Z,0.7
2023-01-20T12:08:05.960Z,0.7
2023-01-20T12:09:06.193Z,0.6
2023-01-20T12:10:07.791Z,0.7
2023-01-20T12:11:06.526Z,0.7
2023-01-20T12:12:06.408Z,0.6
2023-01-20T12:13:06.111Z,0.6
2023-01-20T12:14:06.476Z,0.6
2023-01-20T12:15:05.842Z,0.6
2023-01-20T12:16:06.145Z,0
2023-01-20T12:17:06.233Z,0.6
2023-01-20T12:18:07.093Z,0.6
2023-01-20T12:19:07.294Z,0.5
2023-01-20T12:20:06.429Z,0
2023-01-20T12:21:05.973Z,0.5
2023-01-20T12:22:06.259Z,0.5
2023-01-20T12:23:06.542Z,0.5
2023-01-20T12:24:07.479Z,0.5
2023-01-20T12:25:06.262Z,0.5
2023-01-20T12:26:05.791Z,0.5
2023-01-20T12:27:06.222Z,0
2023-01-20T12:28:06.193Z,0.5
2023-01-20T12:29:05.761Z,0.5
2023-01-20T12:30:06.217Z,0.5
2023-01-20T12:31:06.486Z,0.5
2023-01-20T12:32:06.867Z,0.5
2023-01-20T12:33:06.019Z,0.5
2023-01-20T12:34:06.491Z,0.5
2023-01-20T12:35:06.151Z,0.5
2023-01-20T12:36:07.178Z,0.5
2023-01-20T12:37:06.191Z,0.5
2023-01-20T12:38:06.678Z,0.5
2023-01-20T12:39:05.935Z,0.5
2023-01-20T12:40:05.587Z,0.5
2023-01-20T12:41:06.086Z,0.5
2023-01-20T12:42:07.293Z,0.5
2023-01-20T12:43:06.390Z,0.5
2023-01-20T12:44:05.774Z,0.6
2023-01-20T12:45:06.424Z,0.6
2023-01-20T12:46:06.044Z,0.6
2023-01-20T12:47:06.146Z,0.6
2023-01-20T12:48:06.599Z,0.6
2023-01-20T12:49:05.893Z,0.6
2023-01-20T12:50:06.404Z,0
2023-01-20T12:51:05.712Z,0.7
2023-01-20T12:52:06.023Z,0
2023-01-20T12:53:06.457Z,0.7
2023-01-20T12:54:05.945Z,0.7
2023-01-20T12:55:06.547Z,0.7
2023-01-20T12:56:06.147Z,0.7
2023-01-20T12:57:06.495Z,0.6
2023-01-20T12:58:05.950Z,0.6
2023-01-20T12:59:06.517Z,0.6
2023-01-20T13:00:06.002Z,0.6
2023-01-20T13:01:05.892Z,0.6
2023-01-20T13:02:06.140Z,0.6
2023-01-20T13:03:06.869Z,0.6
2023-01-20T13:04:06.731Z,0.6
2023-01-20T13:05:05.868Z,0.6
2023-01-20T13:06:06.340Z,0.6
2023-01-20T13:07:05.910Z,0.5
2023-01-20T13:08:06.354Z,0.5
2023-01-20T13:09:05.796Z,0.5
2023-01-20T13:10:06.352Z,0.5
2023-01-20T13:11:05.825Z,0.6
2023-01-20T13:12:06.159Z,0.6
2023-01-20T13:13:06.657Z,0.6
2023-01-20T13:14:05.896Z,0.6
2023-01-20T13:15:06.583Z,0.5
2023-01-20T13:16:06.352Z,0.6
2023-01-20T13:17:06.145Z,0.5
2023-01-20T13:18:06.206Z,0.6
2023-01-20T13:19:06.369Z,0.6
2023-01-20T13:20:06.075Z,0.6
2023-01-20T13:21:06.431Z,0.6
2023-01-20T13:22:12.436Z,0.6
2023-01-20T13:23:06.244Z,0.7
2023-01-20T13:24:06.584Z,0.7
2023-01-20T13:25:06.062Z,0.7
2023-01-20T13:26:06.346Z,0.7
2023-01-20T13:27:05.826Z,0.7
2023-01-20T13:28:05.924Z,0.7
2023-01-20T13:29:05.765Z,0.7
2023-01-20T13:30:06.123Z,0.8
2023-01-20T13:31:06.519Z,0.8
2023-01-20T13:32:06.156Z,0.8
2023-01-20T13:33:08.910Z,0.8
2023-01-20T13:34:05.819Z,0.8